Crawford, Oklahoma
Current Conditions -  °F | °C
As of 2:53 PM on Thursday 27 Nov 2014 (Local Time) from KGAG Reporting Station
Clear Clear  
Wind Chill: 13°   Ceiling: Unl
Heat Index: 13°   Visibility: 10mi
Dew Point: -4°   Wind: 16mph
Humidity: 30%   Direction: 200°SSW
Pressure: 30.27"   Gusts: 25mph
Location:  35.83°N, 99.8°W
Report Text: KGAG 272053Z AUTO 20014G22KT 10SM CLR 13/M04 A3027 RMK AO2 SLP260 T01281044 56039
Loading
Personal Weather Stations






























Interactive Weather Map New forecast layout! Learn more

10-Day Weather Forecast

Advertisements
Track Severe Weather on mobile